KISW/ISW METAR and TAF weather

Enter ICAO airport designator
Station Type Date Time Source
KISW METAR 2020/04/05 13:54 UTC NOAA

KISW 051354Z AUTO 12007KT 2 1/2SM BR OVC002 00/M01 A3023 RMK AO2 SLP249 I1000 T00001006


Station Type Date Time Source
KISW Decoded METAR 2020/04/05 13:54 UTC NOAA

WI RAPIDS ALEXANDER FIELD, WI, United States (KISW) 44-22N 89-50W 307M
Apr 05, 2020 - 09:54 AM EDT / 2020.04.05 1354 UTC
Wind: from the ESE (120 degrees) at 8 MPH (7 KT):0
Visibility: 2 1/2 mile(s):0
Sky conditions: overcast
Weather: mist
Temperature: 32.0 F (0.0 C)
Windchill: 24 F (-4 C):1
Dew Point: 30.9 F (-0.6 C)
Relative Humidity: 95%
Pressure (altimeter): 30.23 in. Hg (1023 hPa)
ob: KISW 051354Z AUTO 12007KT 2 1/2SM BR OVC002 00/M01 A3023 RMK AO2 SLP249 I1000 T00001006
cycle: 14

Station Type Date Time Source
KISW TAF UTC NOAA

Error!

Example: see airport list